This is the latest recevied weather packets stored in our database for station/object SQ9MHX-13. If no packets are shown the sender has not sent any weather packets the latest 10 day(s).
| Time | Temp. | Humidity | Pressure | Rain* | Wind** | Luminosity | Snow |
|---|---|---|---|---|---|---|---|
| 1777692407 | 5° C | 86% | 989.4 hPa | - | 0 m/s | - | - |
| 1777692108 | 5° C | 88% | 989.9 hPa | - | 0 m/s | - | - |
| 1777691810 | 3.89° C | 88% | 989.9 hPa | - | 0 m/s | - | - |
| 1777691512 | 3.89° C | 87% | 989.1 hPa | - | 0 m/s | - | - |
| 1777691214 | 5° C | 84% | 988.1 hPa | - | 0 m/s | - | - |
| 1777690916 | 6.11° C | 85% | 988.3 hPa | - | 0 m/s | - | - |
| 1777690632 | 5° C | 86% | 988.6 hPa | - | 0 m/s | - | - |
| 1777690320 | 5° C | 88% | 988.8 hPa | - | 0 m/s | - | - |
| 1777690021 | 5° C | 89% | 989.4 hPa | - | 0 m/s | - | - |
| 1777689723 | 3.89° C | 88% | 989.9 hPa | - | 0 m/s | - | - |
| 1777689127 | 3.89° C | 88% | 990.6 hPa | - | 0 m/s | - | - |
| 1777688829 | 3.89° C | 88% | 990.4 hPa | - | 0 m/s | - | - |
| 1777688531 | 3.89° C | 89% | 990.5 hPa | - | 0 m/s | - | - |
| 1777688233 | 3.89° C | 87% | 989.9 hPa | - | 0 m/s | - | - |
| 1777687637 | 5° C | 83% | 988.4 hPa | - | 0 m/s | - | - |
| 1777687339 | 5° C | 86% | 989.4 hPa | - | 0 m/s | - | - |
| 1777687041 | 3.89° C | 85% | 989.9 hPa | - | 0 m/s | - | - |
| 1777686444 | 5° C | 85% | 989.3 hPa | - | 0 m/s | - | - |
| 1777686146 | 5° C | 84% | 989.2 hPa | - | 0 m/s | - | - |
| 1777685550 | 5° C | 83% | 988.3 hPa | - | 0 m/s | - | - |
| 1777685252 | 6.11° C | 80% | 987 hPa | - | 0 m/s | - | - |
| 1777684954 | 6.11° C | 80% | 986.9 hPa | - | 0 m/s | - | - |
| 1777684656 | 6.11° C | 82% | 987.9 hPa | - | 0 m/s | - | - |
| 1777684357 | 6.11° C | 80% | 986.8 hPa | - | 0 m/s | - | - |
| 1777684059 | 7.22° C | 77% | 985.9 hPa | - | 0 m/s | - | - |
* Rain since midnight (hover to see other rain measurements)
** Current wind speed in m/s (hover to see current wind gust speed)